Custom Search

Airport METAR Reports

 

YMAV - Avalon Airport, Australia
Distance from station: 0 0km
Updated: 23/03/2017 23:00
Partly cloudy
Partly cloudy
 Wind from ESE
Wind: ESE 33 km/h
Temperature: 18°C
Dew Point: 15°C
Humidity: 83%
Barometer: 1020 hPa
Clouds: Partly cloudy
Visibility: 10 km
Cloud details: Partly cloudy 610 m
2017/03/23 12:00 YMAV 231200Z AUTO 11018KT 9999 // SCT020 18/15 Q1020
YMML - Melbourne Intl A, Australia
Distance from station: NE 50km
Updated: 23/03/2017 23:00
Few Clouds
Few Clouds
 Wind from SSE
Wind: SSE 13 km/h
Temperature: 16°C
Dew Point: 13°C
Humidity: 83%
Barometer: 1020 hPa
Clouds: Few Clouds
Visibility: 10 km
Cloud details: Few Clouds 975 m
2017/03/23 12:00 YMML 231200Z 16007KT 9999 FEW032 16/13 Q1020 NOSIG
YMEN - Melbourne/Essend, Australia
Distance from station: NE 51km
Updated: 23/03/2017 23:00
Clear
Clear
 Wind from ESE
Wind: ESE 13 km/h
Temperature: 17°C
Dew Point: 14°C
Humidity: 83%
Barometer: 1020 hPa
Clouds: Clear
Visibility: 10 km
2017/03/23 12:00 YMEN 231200Z AUTO 12007KT 9999 // NCD 17/14 Q1020
 
YWGT - Wangaratta Arp, Australia
Distance from station: NE 241km
Updated: 23/03/2017 23:00
Clear
Clear
 Wind from SSE
Wind: SSE 9 km/h
Temperature: 18°C
Dew Point: 13°C
Humidity: 73%
Barometer: 1018 hPa
Clouds: Clear
Visibility: 10 km
2017/03/23 12:00 YWGT 231200Z AUTO 16005KT 9999 // NCD 18/13 Q1018
YMAY - Albury Airport, Australia
Distance from station: NE 308km
Updated: 23/03/2017 23:00
Clear
Clear
 Wind from ESE
Wind: ESE 11 km/h
Temperature: 19°C
Dew Point: 14°C
Humidity: 73%
Barometer: 1018 hPa
Clouds: Clear
Visibility: 10 km
2017/03/23 12:00 YMAY 231200Z AUTO 12006KT 9999 // NCD 19/14 Q1018
YMTG - Mount Gambier, Australia
Distance from station: W 326km
Updated: 23/03/2017 22:00
Clear
Clear
 Wind from SE
Wind: SE 22 km/h
Temperature: 16°C
Dew Point: 13°C
Humidity: 83%
Barometer: 1020 hPa
Clouds: Clear
Visibility: 10 km
2017/03/23 11:00 YMTG 231100Z AUTO 13012KT 9999 // NCD 16/13 Q1020
 
YNAR - Narrandera, Australia
Distance from station: NNE 413km
Updated: 23/03/2017 22:00

 Wind from ESE
Wind: ESE 13 km/h
Temperature: 20°C
Dew Point: 16°C
Humidity: 78%
Barometer: 1017 hPa
2017/03/23 11:00 YNAR 231100Z AUTO 12007KT //// // ////// 20/16 Q1017
YSWG - Wagga Wagga(Cv/M, Australia
Distance from station: NE 418km
Updated: 23/03/2017 23:00
Clear
Clear
 Wind from ESE
Wind: ESE 11 km/h
Temperature: 18°C
Dew Point: 15°C
Humidity: 83%
Barometer: 1018 hPa
Clouds: Clear
Visibility: 10 km
2017/03/23 12:00 YSWG 231200Z AUTO 11006KT 9999 // NCD 18/15 Q1018
YCOM - Cooma Snowy Mtns, Australia
Distance from station: ENE 441km
Updated: 23/03/2017 23:00
Overcast
Overcast
 Wind from S
Wind: S 9 km/h
Temperature: 12°C
Dew Point: 12°C
Humidity: 100%
Barometer: 1023 hPa
Clouds: Overcast
Visibility: 10 km
Cloud details: Overcast 335 m
2017/03/23 12:00 YCOM 231200Z AUTO 18005KT 9999 // OVC011 12/12 Q1023
 
YGTH - Griffith Arpt, Australia
Distance from station: NNE 444km
Updated: 23/03/2017 22:00
NOT Current
Clear
Clear
 Wind from ESE
Wind: ESE 22 km/h
Temperature: 20°C
Dew Point: 16°C
Humidity: 78%
Barometer: 1016 hPa
Clouds: Clear
Visibility: 10 km
2017/03/23 11:00 YGTH 231100Z AUTO 11012KT 9999 // NCD 20/16 Q1016
YMLT - Launceston Airpo, Australia
Distance from station: SSE 451km
Updated: 23/03/2017 23:00
Clear
Clear
 Wind from S
Wind: S 13 km/h
Temperature: 11°C
Dew Point: 8°C
Humidity: 82%
Barometer: 1025 hPa
Clouds: Clear
Visibility: 10 km
2017/03/23 12:00 YMLT 231200Z AUTO 19007KT 9999 // NCD 11/08 Q1025
YMIA - Mildura Arpt, Australia
Distance from station: NNW 474km
Updated: 23/03/2017 23:00
Clear
Clear
 Wind from SE
Wind: SE 11 km/h
Temperature: 23°C
Dew Point: 16°C
Humidity: 65%
Barometer: 1015 hPa
Clouds: Clear
Visibility: 10 km
2017/03/23 12:00 YMIA 231200Z AUTO 14006KT 9999 // NCD 23/16 Q1015
 
YMER - Merimbula Arpt, Australia
Distance from station: ENE 494km
Updated: 23/03/2017 23:04
Partly cloudy
Partly cloudy
 Wind from SW
Wind: SW 7 km/h
Temperature: 17°C
Dew Point: 16°C
Humidity: 94%
Barometer: 1021 hPa
Clouds: Partly cloudy
Visibility: 10 km
Cloud details: Partly cloudy 579 m
Partly cloudy 884 m
Partly cloudy 1006 m
2017/03/23 12:04 YMER 231204Z AUTO 23004KT 9999 // SCT019 SCT029 SCT033 17/16 Q1021
YSCB - Canberra (civ/Mi, Australia
Distance from station: NE 518km
Updated: 23/03/2017 23:00
Overcast
Overcast
 Wind from SE
Wind: SE 6 km/h
Temperature: 15°C
Dew Point: 14°C
Humidity: 94%
Barometer: 1021 hPa
Clouds: Overcast
Visibility: 10 km
Cloud details: Overcast 884 m
2017/03/23 12:00 YSCB 231200Z AUTO 13003KT 9999 // OVC029 15/14 Q1021
YMHB - Hobart/Tasmania, Australia
Distance from station: SSE 590km
Updated: 23/03/2017 23:00
Mostly cloudy
Mostly cloudy
 Wind from S
Wind: S 9 km/h
Temperature: 14°C
Dew Point: 10°C
Humidity: 77%
Barometer: 1026 hPa
Clouds: Mostly cloudy
Visibility: 10 km
Cloud details: Few Clouds 914 m
Mostly cloudy 1311 m
2017/03/23 12:00 YMHB 231200Z 17005KT 9999 FEW030 BKN043 14/10 Q1026